createdAt,value
2018-12-01T00:00:58.884Z,1019.07
2018-12-01T00:01:59.915Z,1019.01
2018-12-01T00:02:58.846Z,1018.99
2018-12-01T00:03:59.088Z,1019.05
2018-12-01T00:04:58.888Z,1018.98
2018-12-01T00:05:59.260Z,1019.01
2018-12-01T00:06:59.195Z,1019.01
2018-12-01T00:07:59.019Z,1019
2018-12-01T00:08:58.965Z,1018.99
2018-12-01T00:09:58.920Z,1018.99
2018-12-01T00:10:59.495Z,1019
2018-12-01T00:11:58.848Z,1018.95
2018-12-01T00:12:58.996Z,1018.93
2018-12-01T00:13:58.837Z,1018.94
2018-12-01T00:14:58.982Z,1018.95
2018-12-01T00:15:59.088Z,1018.95
2018-12-01T00:16:58.865Z,1018.97
2018-12-01T00:17:58.986Z,1018.97
2018-12-01T00:18:58.899Z,1018.97
2018-12-01T00:19:58.959Z,1018.99
2018-12-01T00:20:58.886Z,1018.99
2018-12-01T00:21:58.978Z,1019.02
2018-12-01T00:22:58.913Z,1019.03
2018-12-01T00:23:58.851Z,1019.06
2018-12-01T00:24:58.897Z,1019.01
2018-12-01T00:25:59.305Z,1018.99
2018-12-01T00:26:59.089Z,1018.99
2018-12-01T00:27:58.841Z,1018.97
2018-12-01T00:28:58.991Z,1018.98
2018-12-01T00:29:58.836Z,1019
2018-12-01T00:30:58.891Z,1018.98
2018-12-01T00:31:58.898Z,1018.96
2018-12-01T00:32:58.907Z,1018.98
2018-12-01T00:33:58.989Z,1018.99
2018-12-01T00:34:59.008Z,1018.94
2018-12-01T00:35:58.963Z,1018.9
2018-12-01T00:36:58.866Z,1018.91
2018-12-01T00:37:59.310Z,1018.93
2018-12-01T00:38:59.047Z,1018.94
2018-12-01T00:39:58.932Z,1018.95
2018-12-01T00:40:59.087Z,1018.93
2018-12-01T00:41:58.806Z,1018.95
2018-12-01T00:42:59.029Z,1018.96
2018-12-01T00:43:59.420Z,1018.95
2018-12-01T00:44:59.535Z,1018.97
2018-12-01T00:45:58.904Z,1018.99
2018-12-01T00:46:59.422Z,1018.96
2018-12-01T00:47:58.887Z,1018.98
2018-12-01T00:48:59.244Z,1018.9
2018-12-01T00:49:58.871Z,1018.96
2018-12-01T00:50:59.407Z,1018.92
2018-12-01T00:51:59.319Z,1018.96
2018-12-01T00:52:59.230Z,1018.95
2018-12-01T00:53:58.967Z,1019.01
2018-12-01T00:54:59.224Z,1019.02
2018-12-01T00:55:59.820Z,1018.99
2018-12-01T00:56:58.859Z,1019.07
2018-12-01T00:57:59.215Z,1019.05
2018-12-01T00:58:58.921Z,1019.1
2018-12-01T00:59:59.112Z,1019.1
2018-12-01T01:00:59.295Z,1019.1
2018-12-01T01:01:59.431Z,1019.12
2018-12-01T01:02:58.886Z,1019.14
2018-12-01T01:03:58.900Z,1019.14
2018-12-01T01:04:58.981Z,1019.19
2018-12-01T01:05:59.493Z,1019.21
2018-12-01T01:06:59.249Z,1019.22
2018-12-01T01:07:58.921Z,1019.24
2018-12-01T01:08:59.116Z,1019.31
2018-12-01T01:09:59.226Z,1019.33
2018-12-01T01:10:59.238Z,1019.35
2018-12-01T01:11:59.042Z,1019.31
2018-12-01T01:12:58.923Z,1019.36
2018-12-01T01:13:59.019Z,1019.31
2018-12-01T01:14:59.092Z,1019.34
2018-12-01T01:15:59.136Z,1019.37
2018-12-01T01:16:59.301Z,1019.32
2018-12-01T01:17:58.891Z,1019.28
2018-12-01T01:18:58.980Z,1019.27
2018-12-01T01:19:58.854Z,1019.28
2018-12-01T01:20:59.019Z,1019.32
2018-12-01T01:21:58.902Z,1019.31
2018-12-01T01:22:59.102Z,1019.32
2018-12-01T01:23:58.963Z,1019.29
2018-12-01T01:24:58.924Z,1019.35
2018-12-01T01:25:58.988Z,1019.39
2018-12-01T01:26:59.323Z,1019.38
2018-12-01T01:27:59.287Z,1019.38
2018-12-01T01:28:59.038Z,1019.38
2018-12-01T01:29:58.849Z,1019.34
2018-12-01T01:30:59.176Z,1019.33
2018-12-01T01:31:59.064Z,1019.36
2018-12-01T01:32:59.049Z,1019.35
2018-12-01T01:33:59.062Z,1019.35
2018-12-01T01:34:59.020Z,1019.32
2018-12-01T01:35:59.221Z,1019.34
2018-12-01T01:36:59.013Z,1019.34
2018-12-01T01:38:00.451Z,1019.35
2018-12-01T01:38:58.999Z,1019.35
2018-12-01T01:39:58.918Z,1019.35
2018-12-01T01:40:59.114Z,1019.36
2018-12-01T01:41:59.096Z,1019.36
2018-12-01T01:42:59.373Z,1019.37
2018-12-01T01:43:58.990Z,1019.37
2018-12-01T01:44:58.891Z,1019.36
2018-12-01T01:45:59.216Z,1019.4
2018-12-01T01:46:58.760Z,1019.41
2018-12-01T01:47:59.112Z,1019.43
2018-12-01T01:48:59.318Z,1019.47
2018-12-01T01:49:58.933Z,1019.49
2018-12-01T01:50:58.828Z,1019.47
2018-12-01T01:51:58.985Z,1019.53
2018-12-01T01:52:58.921Z,1019.51
2018-12-01T01:53:58.780Z,1019.51
2018-12-01T01:54:58.934Z,1019.47
2018-12-01T01:55:58.846Z,1019.51
2018-12-01T01:56:58.919Z,1019.44
2018-12-01T01:57:58.773Z,1019.45
2018-12-01T01:58:58.958Z,1019.46
2018-12-01T01:59:58.695Z,1019.39
2018-12-01T02:00:58.902Z,1019.38
2018-12-01T02:01:58.713Z,1019.42
2018-12-01T02:02:58.965Z,1019.4
2018-12-01T02:03:59.074Z,1019.38
2018-12-01T02:04:58.881Z,1019.39
2018-12-01T02:05:58.965Z,1019.34
2018-12-01T02:06:58.899Z,1019.34
2018-12-01T02:07:58.915Z,1019.33
2018-12-01T02:08:58.722Z,1019.34
2018-12-01T02:09:58.973Z,1019.37
2018-12-01T02:10:58.796Z,1019.39
2018-12-01T02:11:58.833Z,1019.35
2018-12-01T02:12:59.068Z,1019.34
2018-12-01T02:13:59.089Z,1019.35
2018-12-01T02:14:58.942Z,1019.35
2018-12-01T02:15:58.975Z,1019.37
2018-12-01T02:16:59.388Z,1019.37
2018-12-01T02:17:58.849Z,1019.39
2018-12-01T02:18:58.838Z,1019.36
2018-12-01T02:19:58.989Z,1019.33
2018-12-01T02:20:58.845Z,1019.36
2018-12-01T02:21:59.029Z,1019.35
2018-12-01T02:22:58.977Z,1019.37
2018-12-01T02:23:58.904Z,1019.37
2018-12-01T02:24:59.687Z,1019.37
2018-12-01T02:25:59.573Z,1019.35
2018-12-01T02:26:59.169Z,1019.34
2018-12-01T02:27:59.825Z,1019.33
2018-12-01T02:28:58.818Z,1019.36
2018-12-01T02:29:58.794Z,1019.37
2018-12-01T02:30:59.419Z,1019.37
2018-12-01T02:31:59.052Z,1019.39
2018-12-01T02:32:58.937Z,1019.36
2018-12-01T02:33:58.748Z,1019.34
2018-12-01T02:34:58.940Z,1019.31
2018-12-01T02:35:58.774Z,1019.3
2018-12-01T02:36:59.263Z,1019.3
2018-12-01T02:37:59.129Z,1019.29
2018-12-01T02:38:59.200Z,1019.26
2018-12-01T02:39:59.307Z,1019.31
2018-12-01T02:40:59.197Z,1019.34
2018-12-01T02:41:59.239Z,1019.31
2018-12-01T02:42:58.793Z,1019.33
2018-12-01T02:43:58.800Z,1019.29
2018-12-01T02:44:59.051Z,1019.32
2018-12-01T02:45:59.206Z,1019.32
2018-12-01T02:46:58.981Z,1019.34
2018-12-01T02:47:58.750Z,1019.35
2018-12-01T02:48:58.735Z,1019.35
2018-12-01T02:49:59.477Z,1019.38
2018-12-01T02:50:58.929Z,1019.3
2018-12-01T02:51:59.070Z,1019.28
2018-12-01T02:52:58.918Z,1019.27
2018-12-01T02:53:59.000Z,1019.26
2018-12-01T02:54:58.902Z,1019.28
2018-12-01T02:55:58.887Z,1019.32
2018-12-01T02:56:58.840Z,1019.29
2018-12-01T02:57:59.124Z,1019.25
2018-12-01T02:58:59.204Z,1019.24
2018-12-01T02:59:58.892Z,1019.21
2018-12-01T03:00:58.935Z,1019.18
2018-12-01T03:01:58.947Z,1019.21
2018-12-01T03:02:59.323Z,1019.22
2018-12-01T03:03:58.806Z,1019.25
2018-12-01T03:04:58.968Z,1019.21
2018-12-01T03:05:58.673Z,1019.15
2018-12-01T03:06:58.618Z,1019.16
2018-12-01T03:07:58.863Z,1019.2
2018-12-01T03:08:58.805Z,1019.2
2018-12-01T03:09:59.119Z,1019.24
2018-12-01T03:10:58.836Z,1019.19
2018-12-01T03:11:59.280Z,1019.18
2018-12-01T03:12:58.955Z,1019.17
2018-12-01T03:13:58.996Z,1019.17
2018-12-01T03:14:59.050Z,1019.13
2018-12-01T03:15:59.061Z,1019.1
2018-12-01T03:16:59.191Z,1019.15
2018-12-01T03:17:59.124Z,1019.12
2018-12-01T03:18:59.057Z,1019.16
2018-12-01T03:19:58.769Z,1019.21
2018-12-01T03:20:59.010Z,1019.18
2018-12-01T03:21:58.812Z,1019.22
2018-12-01T03:22:58.838Z,1019.22
2018-12-01T03:23:58.973Z,1019.22
2018-12-01T03:24:58.736Z,1019.21
2018-12-01T03:25:58.764Z,1019.19
2018-12-01T03:26:59.510Z,1019.14
2018-12-01T03:27:58.959Z,1019.16
2018-12-01T03:28:59.085Z,1019.15
2018-12-01T03:29:58.879Z,1019.19
2018-12-01T03:30:58.753Z,1019.16
2018-12-01T03:31:59.266Z,1019.13
2018-12-01T03:32:58.768Z,1019.21
2018-12-01T03:33:58.722Z,1019.2
2018-12-01T03:34:58.966Z,1019.24
2018-12-01T03:35:58.811Z,1019.24
2018-12-01T03:36:58.911Z,1019.28
2018-12-01T03:37:58.749Z,1019.3
2018-12-01T03:38:58.907Z,1019.27
2018-12-01T03:39:58.810Z,1019.27
2018-12-01T03:40:58.968Z,1019.27
2018-12-01T03:41:58.820Z,1019.25
2018-12-01T03:42:58.758Z,1019.27
2018-12-01T03:43:58.787Z,1019.28
2018-12-01T03:44:58.864Z,1019.26
2018-12-01T03:45:59.106Z,1019.26
2018-12-01T03:46:58.941Z,1019.26
2018-12-01T03:47:58.809Z,1019.26
2018-12-01T03:48:58.749Z,1019.25
2018-12-01T03:49:58.979Z,1019.28
2018-12-01T03:50:58.772Z,1019.28
2018-12-01T03:51:58.710Z,1019.27
2018-12-01T03:52:58.797Z,1019.3
2018-12-01T03:53:58.918Z,1019.28
2018-12-01T03:54:59.034Z,1019.3
2018-12-01T03:55:58.800Z,1019.31
2018-12-01T03:56:59.130Z,1019.32
2018-12-01T03:57:58.771Z,1019.31
2018-12-01T03:58:58.943Z,1019.33
2018-12-01T03:59:58.652Z,1019.35
2018-12-01T04:00:58.733Z,1019.34
2018-12-01T04:01:59.288Z,1019.34
2018-12-01T04:02:58.777Z,1019.38
2018-12-01T04:03:59.063Z,1019.34
2018-12-01T04:04:58.773Z,1019.28
2018-12-01T04:05:59.280Z,1019.29
2018-12-01T04:06:58.994Z,1019.36
2018-12-01T04:07:58.907Z,1019.38
2018-12-01T04:08:58.874Z,1019.33
2018-12-01T04:09:58.963Z,1019.41
2018-12-01T04:10:59.112Z,1019.38
2018-12-01T04:11:58.933Z,1019.41
2018-12-01T04:12:59.019Z,1019.48
2018-12-01T04:13:59.043Z,1019.5
2018-12-01T04:14:58.861Z,1019.41
2018-12-01T04:15:59.143Z,1019.43
2018-12-01T04:16:59.351Z,1019.47
2018-12-01T04:17:58.957Z,1019.45
2018-12-01T04:18:59.155Z,1019.46
2018-12-01T04:19:58.766Z,1019.47
2018-12-01T04:20:58.773Z,1019.46
2018-12-01T04:21:59.032Z,1019.47
2018-12-01T04:22:58.798Z,1019.42
2018-12-01T04:23:59.098Z,1019.43
2018-12-01T04:24:58.687Z,1019.46
2018-12-01T04:25:58.997Z,1019.46
2018-12-01T04:26:58.918Z,1019.39
2018-12-01T04:27:58.756Z,1019.42
2018-12-01T04:28:58.960Z,1019.43
2018-12-01T04:29:59.260Z,1019.46
2018-12-01T04:30:58.902Z,1019.43
2018-12-01T04:31:58.924Z,1019.47
2018-12-01T04:32:58.911Z,1019.41
2018-12-01T04:33:58.664Z,1019.42
2018-12-01T04:34:58.874Z,1019.42
2018-12-01T04:35:58.935Z,1019.39
2018-12-01T04:36:58.815Z,1019.37
2018-12-01T04:37:59.194Z,1019.4
2018-12-01T04:38:58.637Z,1019.4
2018-12-01T04:39:59.220Z,1019.43
2018-12-01T04:40:58.691Z,1019.39
2018-12-01T04:41:59.058Z,1019.39
2018-12-01T04:42:58.804Z,1019.41
2018-12-01T04:43:58.866Z,1019.41
2018-12-01T04:44:59.355Z,1019.45
2018-12-01T04:45:59.341Z,1019.48
2018-12-01T04:46:59.838Z,1019.52
2018-12-01T04:47:58.700Z,1019.5
2018-12-01T04:48:58.830Z,1019.5
2018-12-01T04:49:58.800Z,1019.51
2018-12-01T04:50:59.089Z,1019.46
2018-12-01T04:51:58.659Z,1019.48
2018-12-01T04:52:58.834Z,1019.44
2018-12-01T04:53:58.969Z,1019.42
2018-12-01T04:54:58.849Z,1019.47
2018-12-01T04:55:58.950Z,1019.48
2018-12-01T04:56:58.848Z,1019.47
2018-12-01T04:57:59.246Z,1019.46
2018-12-01T04:58:59.055Z,1019.47
2018-12-01T04:59:59.053Z,1019.48
2018-12-01T05:00:58.768Z,1019.48
2018-12-01T05:01:58.931Z,1019.52
2018-12-01T05:02:59.051Z,1019.55
2018-12-01T05:03:59.275Z,1019.54
2018-12-01T05:04:58.934Z,1019.56
2018-12-01T05:05:58.668Z,1019.57
2018-12-01T05:06:58.822Z,1019.59
2018-12-01T05:07:58.839Z,1019.62
2018-12-01T05:08:58.969Z,1019.55
2018-12-01T05:09:58.880Z,1019.59
2018-12-01T05:10:58.757Z,1019.6
2018-12-01T05:11:58.914Z,1019.6
2018-12-01T05:12:58.810Z,1019.57
2018-12-01T05:13:58.833Z,1019.56
2018-12-01T05:14:58.722Z,1019.57
2018-12-01T05:15:58.967Z,1019.53
2018-12-01T05:16:58.782Z,1019.53
2018-12-01T05:17:58.856Z,1019.54
2018-12-01T05:18:58.682Z,1019.49
2018-12-01T05:19:58.987Z,1019.51
2018-12-01T05:20:58.868Z,1019.48
2018-12-01T05:21:58.821Z,1019.53
2018-12-01T05:22:58.914Z,1019.52
2018-12-01T05:23:58.777Z,1019.51
2018-12-01T05:24:58.882Z,1019.57
2018-12-01T05:25:58.645Z,1019.56
2018-12-01T05:26:58.765Z,1019.57
2018-12-01T05:27:59.047Z,1019.58
2018-12-01T05:28:58.841Z,1019.58
2018-12-01T05:29:59.132Z,1019.64
2018-12-01T05:30:59.070Z,1019.64
2018-12-01T05:31:58.952Z,1019.65
2018-12-01T05:32:58.781Z,1019.62
2018-12-01T05:33:58.855Z,1019.64
2018-12-01T05:34:58.714Z,1019.71
2018-12-01T05:35:58.901Z,1019.68
2018-12-01T05:36:59.302Z,1019.69
2018-12-01T05:37:58.952Z,1019.66
2018-12-01T05:38:59.052Z,1019.63
2018-12-01T05:39:58.834Z,1019.66
2018-12-01T05:40:59.157Z,1019.7
2018-12-01T05:41:58.963Z,1019.71
2018-12-01T05:42:59.176Z,1019.76
2018-12-01T05:43:58.928Z,1019.77
2018-12-01T05:44:58.796Z,1019.79
2018-12-01T05:45:58.740Z,1019.83
2018-12-01T05:46:58.919Z,1019.81
2018-12-01T05:47:59.200Z,1019.84
2018-12-01T05:48:59.029Z,1019.87
2018-12-01T05:49:58.855Z,1019.87
2018-12-01T05:50:59.420Z,1019.9
2018-12-01T05:51:59.024Z,1019.9
2018-12-01T05:53:00.201Z,1019.91
2018-12-01T05:53:58.747Z,1019.94
2018-12-01T05:54:58.634Z,1019.94
2018-12-01T05:55:58.897Z,1019.95
2018-12-01T05:56:59.032Z,1019.89
2018-12-01T05:57:58.855Z,1019.93
2018-12-01T05:58:58.833Z,1019.96
2018-12-01T05:59:58.887Z,1019.93
2018-12-01T06:00:59.192Z,1019.93
2018-12-01T06:01:58.788Z,1019.95
2018-12-01T06:02:58.899Z,1019.97
2018-12-01T06:03:58.689Z,1019.96
2018-12-01T06:04:58.719Z,1019.95
2018-12-01T06:05:59.142Z,1019.99
2018-12-01T06:06:58.793Z,1019.95
2018-12-01T06:07:58.825Z,1019.95
2018-12-01T06:08:58.680Z,1020.03
2018-12-01T06:09:58.849Z,1020.01
2018-12-01T06:10:59.387Z,1020.06
2018-12-01T06:11:59.323Z,1020.01
2018-12-01T06:12:58.767Z,1020.11
2018-12-01T06:13:58.767Z,1020.1
2018-12-01T06:14:58.706Z,1020.09
2018-12-01T06:15:58.852Z,1020.09
2018-12-01T06:16:59.142Z,1020.05
2018-12-01T06:17:58.794Z,1020.12
2018-12-01T06:18:59.216Z,1020.13
2018-12-01T06:19:58.669Z,1020.1
2018-12-01T06:20:58.818Z,1020.08
2018-12-01T06:21:58.665Z,1020.13
2018-12-01T06:22:59.022Z,1020.13
2018-12-01T06:23:59.294Z,1020.15
2018-12-01T06:24:59.218Z,1020.22
2018-12-01T06:25:58.940Z,1020.22
2018-12-01T06:26:58.823Z,1020.22
2018-12-01T06:27:59.074Z,1020.2
2018-12-01T06:28:59.442Z,1020.23
2018-12-01T06:29:58.755Z,1020.23
2018-12-01T06:30:58.752Z,1020.26
2018-12-01T06:31:58.973Z,1020.19
2018-12-01T06:32:59.193Z,1020.24
2018-12-01T06:33:58.722Z,1020.18
2018-12-01T06:34:58.877Z,1020.19
2018-12-01T06:35:58.658Z,1020.19
2018-12-01T06:36:58.749Z,1020.26
2018-12-01T06:37:58.809Z,1020.25
2018-12-01T06:39:00.072Z,1020.27
2018-12-01T06:39:58.942Z,1020.27
2018-12-01T06:40:59.066Z,1020.25
2018-12-01T06:41:58.599Z,1020.32
2018-12-01T06:42:59.217Z,1020.32
2018-12-01T06:43:58.847Z,1020.36
2018-12-01T06:44:58.736Z,1020.32
2018-12-01T06:45:58.857Z,1020.34
2018-12-01T06:46:58.659Z,1020.36
2018-12-01T06:47:58.879Z,1020.33
2018-12-01T06:48:58.713Z,1020.3
2018-12-01T06:49:58.868Z,1020.26
2018-12-01T06:50:58.855Z,1020.29
2018-12-01T06:51:58.834Z,1020.3
2018-12-01T06:52:59.661Z,1020.27
2018-12-01T06:53:58.786Z,1020.33
2018-12-01T06:54:58.774Z,1020.34
2018-12-01T06:55:58.636Z,1020.28
2018-12-01T06:56:59.048Z,1020.29
2018-12-01T06:57:58.651Z,1020.28
2018-12-01T06:58:58.756Z,1020.24
2018-12-01T06:59:58.694Z,1020.2
2018-12-01T07:00:58.916Z,1020.22
2018-12-01T07:01:58.780Z,1020.18
2018-12-01T07:02:58.640Z,1020.18
2018-12-01T07:03:58.912Z,1020.17
2018-12-01T07:04:59.798Z,1020.11
2018-12-01T07:05:58.861Z,1020.16
2018-12-01T07:06:58.639Z,1020.15
2018-12-01T07:07:59.047Z,1020.17
2018-12-01T07:08:59.176Z,1020.16
2018-12-01T07:09:58.743Z,1020.19
2018-12-01T07:10:58.896Z,1020.18
2018-12-01T07:11:59.016Z,1020.14
2018-12-01T07:12:59.191Z,1020.17
2018-12-01T07:13:58.741Z,1020.16
2018-12-01T07:14:58.796Z,1020.2
2018-12-01T07:15:58.895Z,1020.16
2018-12-01T07:16:58.938Z,1020.16
2018-12-01T07:17:59.221Z,1020.22
2018-12-01T07:18:58.730Z,1020.14
2018-12-01T07:19:59.066Z,1020.19
2018-12-01T07:20:58.654Z,1020.19
2018-12-01T07:21:59.048Z,1020.15
2018-12-01T07:22:59.107Z,1020.19
2018-12-01T07:23:58.883Z,1020.19
2018-12-01T07:24:58.961Z,1020.16
2018-12-01T07:25:58.742Z,1020.18
2018-12-01T07:26:58.714Z,1020.12
2018-12-01T07:27:58.862Z,1020.15
2018-12-01T07:28:58.917Z,1020.12
2018-12-01T07:29:58.779Z,1020.17
2018-12-01T07:30:58.786Z,1020.2
2018-12-01T07:31:58.997Z,1020.24
2018-12-01T07:32:59.105Z,1020.26
2018-12-01T07:33:58.718Z,1020.29
2018-12-01T07:34:58.709Z,1020.3
2018-12-01T07:35:58.589Z,1020.3
2018-12-01T07:36:58.777Z,1020.26
2018-12-01T07:37:58.818Z,1020.23
2018-12-01T07:38:58.835Z,1020.26
2018-12-01T07:39:58.844Z,1020.25
2018-12-01T07:40:58.666Z,1020.26
2018-12-01T07:41:58.739Z,1020.23
2018-12-01T07:42:58.633Z,1020.2
2018-12-01T07:43:58.808Z,1020.19
2018-12-01T07:44:58.727Z,1020.18
2018-12-01T07:45:58.859Z,1020.21
2018-12-01T07:46:58.923Z,1020.23
2018-12-01T07:47:58.767Z,1020.19
2018-12-01T07:48:58.958Z,1020.19
2018-12-01T07:49:59.086Z,1020.2
2018-12-01T07:50:58.817Z,1020.19
2018-12-01T07:51:58.721Z,1020.21
2018-12-01T07:52:58.705Z,1020.18
2018-12-01T07:53:59.078Z,1020.17
2018-12-01T07:54:58.804Z,1020.17
2018-12-01T07:55:58.840Z,1020.17
2018-12-01T07:56:59.068Z,1020.09
2018-12-01T07:57:59.286Z,1020.06
2018-12-01T07:58:59.057Z,1020.08
2018-12-01T07:59:59.011Z,1020.06
2018-12-01T08:00:58.712Z,1020.08
2018-12-01T08:01:59.160Z,1020.09
2018-12-01T08:02:59.165Z,1020.14
2018-12-01T08:03:59.024Z,1020.1
2018-12-01T08:04:59.154Z,1020.05
2018-12-01T08:05:58.975Z,1020.06
2018-12-01T08:06:59.067Z,1020.09
2018-12-01T08:07:58.986Z,1020.08
2018-12-01T08:08:59.360Z,1020.06
2018-12-01T08:09:58.641Z,1020.03
2018-12-01T08:10:58.725Z,1020.03
2018-12-01T08:11:58.785Z,1020.07
2018-12-01T08:12:58.696Z,1020.04
2018-12-01T08:13:58.831Z,1019.98
2018-12-01T08:14:58.614Z,1019.99
2018-12-01T08:15:59.142Z,1020.03
2018-12-01T08:16:59.037Z,1020.02
2018-12-01T08:17:58.788Z,1019.95
2018-12-01T08:18:58.641Z,1019.94
2018-12-01T08:19:58.787Z,1020.05
2018-12-01T08:20:58.603Z,1020.05
2018-12-01T08:21:58.738Z,1020.05
2018-12-01T08:22:58.829Z,1020.01
2018-12-01T08:23:58.842Z,1020.05
2018-12-01T08:24:58.842Z,1020
2018-12-01T08:25:58.596Z,1019.97
2018-12-01T08:26:58.852Z,1019.9
2018-12-01T08:27:58.646Z,1019.9
2018-12-01T08:28:58.687Z,1019.91
2018-12-01T08:29:58.627Z,1019.95
2018-12-01T08:30:58.786Z,1019.87
2018-12-01T08:31:58.793Z,1019.91
2018-12-01T08:32:58.697Z,1019.89
2018-12-01T08:33:58.809Z,1019.9
2018-12-01T08:34:58.706Z,1019.89
2018-12-01T08:35:58.694Z,1019.87
2018-12-01T08:36:58.692Z,1019.92
2018-12-01T08:37:58.902Z,1019.95
2018-12-01T08:38:58.706Z,1019.96
2018-12-01T08:39:58.654Z,1020.01
2018-12-01T08:40:59.321Z,1019.96
2018-12-01T08:41:58.678Z,1020
2018-12-01T08:42:58.726Z,1020
2018-12-01T08:43:58.737Z,1020.04
2018-12-01T08:44:58.842Z,1019.98
2018-12-01T08:45:58.800Z,1019.99
2018-12-01T08:46:58.797Z,1020.03
2018-12-01T08:47:58.548Z,1019.94
2018-12-01T08:48:58.810Z,1019.94
2018-12-01T08:49:58.918Z,1019.93
2018-12-01T08:50:58.792Z,1019.98
2018-12-01T08:51:58.799Z,1020.04
2018-12-01T08:52:58.914Z,1019.95
2018-12-01T08:53:58.783Z,1019.94
2018-12-01T08:54:58.567Z,1019.91
2018-12-01T08:55:58.755Z,1019.89
2018-12-01T08:56:59.318Z,1019.92
2018-12-01T08:57:58.627Z,1019.97
2018-12-01T08:58:58.906Z,1019.96
2018-12-01T08:59:58.609Z,1019.96
2018-12-01T09:00:58.728Z,1019.99
2018-12-01T09:01:59.243Z,1019.99
2018-12-01T09:02:58.810Z,1019.95
2018-12-01T09:03:58.897Z,1020.03
2018-12-01T09:04:58.667Z,1020.01
2018-12-01T09:05:59.196Z,1020.01
2018-12-01T09:06:58.607Z,1020
2018-12-01T09:07:58.783Z,1020
2018-12-01T09:08:58.997Z,1020.02
2018-12-01T09:09:58.738Z,1020.01
2018-12-01T09:10:58.966Z,1020.05
2018-12-01T09:11:59.093Z,1020.12
2018-12-01T09:13:02.054Z,1020.1
2018-12-01T09:13:58.686Z,1020.09
2018-12-01T09:14:59.166Z,1020.09
2018-12-01T09:15:58.900Z,1020.11
2018-12-01T09:16:58.771Z,1020.1
2018-12-01T09:17:58.714Z,1020.14
2018-12-01T09:18:58.740Z,1020.12
2018-12-01T09:19:59.125Z,1020.11
2018-12-01T09:20:59.009Z,1020.18
2018-12-01T09:21:58.748Z,1020.12
2018-12-01T09:22:58.880Z,1020.07
2018-12-01T09:23:58.748Z,1020.1
2018-12-01T09:24:59.013Z,1020.13
2018-12-01T09:25:58.648Z,1020.09
2018-12-01T09:26:58.837Z,1020.07
2018-12-01T09:27:58.842Z,1020.15
2018-12-01T09:28:58.936Z,1020.12
2018-12-01T09:29:58.918Z,1020.11
2018-12-01T09:30:58.557Z,1020.1
2018-12-01T09:31:58.662Z,1020.02
2018-12-01T09:32:58.736Z,1020.09
2018-12-01T09:33:58.984Z,1020.11
2018-12-01T09:34:59.035Z,1020.06
2018-12-01T09:35:58.816Z,1020.08
2018-12-01T09:36:58.913Z,1020.07
2018-12-01T09:37:58.853Z,1020.09
2018-12-01T09:38:58.867Z,1020.14
2018-12-01T09:39:58.573Z,1020.11
2018-12-01T09:40:58.511Z,1020.19
2018-12-01T09:41:58.636Z,1020.16
2018-12-01T09:42:58.912Z,1020.14
2018-12-01T09:43:58.647Z,1020.15
2018-12-01T09:44:58.797Z,1020.21
2018-12-01T09:45:58.672Z,1020.19
2018-12-01T09:46:59.048Z,1020.19
2018-12-01T09:47:58.732Z,1020.23
2018-12-01T09:48:59.024Z,1020.21
2018-12-01T09:49:58.777Z,1020.22
2018-12-01T09:50:58.927Z,1020.24
2018-12-01T09:51:58.846Z,1020.18
2018-12-01T09:52:58.667Z,1020.13
2018-12-01T09:53:58.665Z,1020.16
2018-12-01T09:54:58.613Z,1020.17
2018-12-01T09:55:59.237Z,1020.15
2018-12-01T09:56:58.579Z,1020.16
2018-12-01T09:57:58.609Z,1020.19
2018-12-01T09:58:58.769Z,1020.13
2018-12-01T09:59:58.695Z,1020.15
2018-12-01T10:00:58.690Z,1020.1
2018-12-01T10:01:58.720Z,1020.1
2018-12-01T10:02:58.750Z,1020.12
2018-12-01T10:03:58.581Z,1020.08
2018-12-01T10:04:58.735Z,1020.07
2018-12-01T10:05:58.954Z,1020.09
2018-12-01T10:06:58.585Z,1020.1
2018-12-01T10:07:58.869Z,1020.1
2018-12-01T10:08:58.650Z,1020.08
2018-12-01T10:09:58.759Z,1020.11
2018-12-01T10:10:58.647Z,1020.1
2018-12-01T10:11:58.616Z,1020.12
2018-12-01T10:12:58.687Z,1020.07
2018-12-01T10:13:58.629Z,1020.09
2018-12-01T10:14:58.789Z,1020.12
2018-12-01T10:15:58.700Z,1020.11
2018-12-01T10:16:59.685Z,1020.11
2018-12-01T10:17:59.026Z,1020.12
2018-12-01T10:18:58.568Z,1020.07
2018-12-01T10:19:58.782Z,1020.09
2018-12-01T10:20:58.988Z,1020.04
2018-12-01T10:21:59.110Z,1020
2018-12-01T10:22:58.972Z,1019.91
2018-12-01T10:23:59.011Z,1019.89
2018-12-01T10:24:59.574Z,1019.83
2018-12-01T10:25:58.932Z,1019.84
2018-12-01T10:26:58.925Z,1019.85
2018-12-01T10:27:58.836Z,1019.87
2018-12-01T10:28:59.643Z,1019.86
2018-12-01T10:29:58.573Z,1019.85
2018-12-01T10:30:58.977Z,1019.78
2018-12-01T10:31:58.714Z,1019.76
2018-12-01T10:32:59.031Z,1019.72
2018-12-01T10:33:58.793Z,1019.74
2018-12-01T10:34:58.740Z,1019.72
2018-12-01T10:35:58.624Z,1019.7
2018-12-01T10:36:58.850Z,1019.72
2018-12-01T10:37:58.768Z,1019.72
2018-12-01T10:39:03.803Z,1019.68
2018-12-01T10:39:59.162Z,1019.76
2018-12-01T10:40:58.719Z,1019.76
2018-12-01T10:42:03.841Z,1019.72
2018-12-01T10:42:58.867Z,1019.63
2018-12-01T10:43:58.786Z,1019.62
2018-12-01T10:44:58.954Z,1019.59
2018-12-01T10:45:58.763Z,1019.61
2018-12-01T10:46:58.703Z,1019.56
2018-12-01T10:47:58.987Z,1019.57
2018-12-01T10:48:58.738Z,1019.59
2018-12-01T10:49:58.546Z,1019.61
2018-12-01T10:50:58.561Z,1019.51
2018-12-01T10:51:59.053Z,1019.54
2018-12-01T10:52:58.765Z,1019.55
2018-12-01T10:53:59.052Z,1019.58
2018-12-01T10:54:58.521Z,1019.59
2018-12-01T10:55:58.737Z,1019.55
2018-12-01T10:56:58.947Z,1019.53
2018-12-01T10:57:58.732Z,1019.55
2018-12-01T10:58:59.082Z,1019.49
2018-12-01T10:59:58.555Z,1019.49
2018-12-01T11:00:58.622Z,1019.51
2018-12-01T11:01:58.567Z,1019.5
2018-12-01T11:02:59.161Z,1019.52
2018-12-01T11:03:58.652Z,1019.49
2018-12-01T11:04:58.799Z,1019.51
2018-12-01T11:05:58.837Z,1019.51
2018-12-01T11:06:59.080Z,1019.5
2018-12-01T11:07:59.060Z,1019.5
2018-12-01T11:08:58.883Z,1019.49
2018-12-01T11:09:58.843Z,1019.43
2018-12-01T11:10:58.726Z,1019.47
2018-12-01T11:11:58.776Z,1019.45
2018-12-01T11:12:58.529Z,1019.46
2018-12-01T11:13:58.895Z,1019.44
2018-12-01T11:14:58.997Z,1019.47
2018-12-01T11:15:58.743Z,1019.45
2018-12-01T11:16:58.958Z,1019.46
2018-12-01T11:17:58.581Z,1019.48
2018-12-01T11:18:59.274Z,1019.41
2018-12-01T11:19:58.475Z,1019.39
2018-12-01T11:20:59.107Z,1019.38
2018-12-01T11:21:58.681Z,1019.41
2018-12-01T11:22:59.293Z,1019.41
2018-12-01T11:23:58.805Z,1019.43
2018-12-01T11:24:58.634Z,1019.4
2018-12-01T11:25:58.758Z,1019.36
2018-12-01T11:26:59.057Z,1019.38
2018-12-01T11:27:58.729Z,1019.37
2018-12-01T11:28:59.092Z,1019.35
2018-12-01T11:29:58.907Z,1019.34
2018-12-01T11:30:58.909Z,1019.29
2018-12-01T11:31:58.883Z,1019.38
2018-12-01T11:32:58.599Z,1019.42
2018-12-01T11:33:58.576Z,1019.36
2018-12-01T11:34:58.927Z,1019.41
2018-12-01T11:35:58.741Z,1019.45
2018-12-01T11:36:58.671Z,1019.51
2018-12-01T11:37:58.667Z,1019.45
2018-12-01T11:38:58.637Z,1019.44
2018-12-01T11:39:58.681Z,1019.43
2018-12-01T11:40:58.649Z,1019.46
2018-12-01T11:41:59.027Z,1019.42
2018-12-01T11:42:58.810Z,1019.34
2018-12-01T11:43:58.773Z,1019.36
2018-12-01T11:44:59.007Z,1019.36
2018-12-01T11:45:58.685Z,1019.29
2018-12-01T11:46:58.645Z,1019.26
2018-12-01T11:47:58.511Z,1019.23
2018-12-01T11:48:58.628Z,1019.24
2018-12-01T11:49:58.537Z,1019.24
2018-12-01T11:50:58.681Z,1019.24
2018-12-01T11:51:59.687Z,1019.19
2018-12-01T11:52:58.589Z,1019.15
2018-12-01T11:53:58.722Z,1019.23
2018-12-01T11:54:58.767Z,1019.16
2018-12-01T11:55:58.754Z,1019.19
2018-12-01T11:56:58.596Z,1019.19
2018-12-01T11:57:58.623Z,1019.15
2018-12-01T11:58:58.502Z,1019.26
2018-12-01T11:59:58.648Z,1019.19
2018-12-01T12:00:58.655Z,1019.14
2018-12-01T12:02:00.848Z,1019.14
2018-12-01T12:02:59.056Z,1019.18
2018-12-01T12:03:58.596Z,1019.14
2018-12-01T12:04:58.611Z,1019.14
2018-12-01T12:05:58.912Z,1019.13
2018-12-01T12:06:58.889Z,1019.06
2018-12-01T12:07:58.861Z,1019.1
2018-12-01T12:08:58.777Z,1019.1